Time;durP1;ratioP1;P1;durP2;ratioP2;P2;SDS_P1;SDS_P2;PMS_P1;PMS_P2;Temp;Humidity;BMP_temperature;BMP_pressure;BME280_temperature;BME280_humidity;BME280_pressure;Samples;Min_cycle;Max_cycle;Signal;HPM_P1;HPM_P2
2021/08/31 00:01:40;;;;;;;2.50;2.30;;;;;;;13.23;83.17;96093.23;1661874;85;21075;-80
2021/08/31 00:04:06;;;;;;;3.10;2.62;;;;;;;13.23;83.17;96084.91;1689049;84;21462;-80
2021/08/31 00:06:32;;;;;;;4.37;3.80;;;;;;;13.26;82.83;96088.41;1684557;84;21030;-80
2021/08/31 00:08:58;;;;;;;3.95;3.58;;;;;;;13.27;82.76;96089.20;1681796;84;21094;-79
2021/08/31 00:11:23;;;;;;;4.08;3.67;;;;;;;13.25;83.13;96084.70;1658018;84;21038;-79
2021/08/31 00:13:49;;;;;;;3.87;3.47;;;;;;;13.23;83.44;96080.19;1675349;84;21000;-79
2021/08/31 00:16:15;;;;;;;4.53;3.40;;;;;;;13.25;83.38;96086.00;1683470;84;21024;-79
2021/08/31 00:18:43;;;;;;;4.92;4.42;;;;;;;13.27;83.37;96084.78;1674180;84;21154;-79
2021/08/31 00:21:10;;;;;;;4.30;3.90;;;;;;;13.29;83.13;96081.46;1696783;84;20994;-80
2021/08/31 00:23:36;;;;;;;4.00;3.60;;;;;;;13.32;83.51;96086.27;1690479;84;21796;-80
2021/08/31 00:26:02;;;;;;;4.90;4.20;;;;;;;13.32;83.27;96084.16;1682886;84;21109;-79
2021/08/31 00:28:27;;;;;;;5.58;4.00;;;;;;;13.32;83.34;96090.18;1677587;85;21067;-79
2021/08/31 00:30:53;;;;;;;4.50;3.70;;;;;;;13.35;83.33;96086.38;1690208;84;21093;-79
2021/08/31 00:33:19;;;;;;;6.37;4.22;;;;;;;13.36;83.26;96084.07;1682221;85;21061;-79
2021/08/31 00:35:45;;;;;;;4.58;3.65;;;;;;;13.37;83.24;96087.78;1699575;83;21043;-79
2021/08/31 00:38:11;;;;;;;4.35;3.77;;;;;;;13.38;82.85;96081.55;1698508;82;21034;-79
2021/08/31 00:40:36;;;;;;;4.75;4.35;;;;;;;13.38;83.21;96087.27;1693975;84;21033;-79
2021/08/31 00:43:03;;;;;;;4.12;3.72;;;;;;;13.37;83.21;96083.06;1690465;84;21044;-79
2021/08/31 00:45:28;;;;;;;5.10;4.53;;;;;;;13.40;83.02;96082.64;1690012;84;21063;-80
2021/08/31 00:47:54;;;;;;;4.85;4.10;;;;;;;13.42;82.85;96084.03;1708008;83;21549;-80
2021/08/31 00:50:20;;;;;;;5.17;4.17;;;;;;;13.43;82.55;96082.22;1707055;82;21449;-80
2021/08/31 00:52:46;;;;;;;5.22;4.55;;;;;;;13.43;83.00;96079.11;1702997;83;21063;-80
2021/08/31 00:55:12;;;;;;;5.17;4.33;;;;;;;13.42;82.91;96078.81;1684796;84;21479;-80
2021/08/31 00:57:39;;;;;;;5.28;4.53;;;;;;;13.41;82.90;96075.91;1671347;84;21052;-79
2021/08/31 01:00:08;;;;;;;4.15;3.52;;;;;;;13.43;83.06;96081.72;1689840;84;21043;-80
2021/08/31 01:02:33;;;;;;;5.85;3.83;;;;;;;13.46;82.94;96085.22;1689099;84;21048;-80
2021/08/31 01:04:59;;;;;;;5.75;4.53;;;;;;;13.47;83.21;96088.63;1681401;84;21064;-80
2021/08/31 01:07:26;;;;;;;6.58;4.90;;;;;;;13.46;82.84;96081.80;1681219;84;21429;-80
2021/08/31 01:09:53;;;;;;;6.50;4.85;;;;;;;13.44;82.77;96086.44;1668230;85;21038;-80
2021/08/31 01:12:18;;;;;;;4.10;3.70;;;;;;;13.44;82.78;96085.93;1669005;84;21034;-79
2021/08/31 01:14:46;;;;;;;4.87;4.33;;;;;;;13.46;82.67;96077.89;1678631;84;21039;-79
2021/08/31 01:17:12;;;;;;;5.22;4.58;;;;;;;13.47;82.60;96077.68;1711351;83;21035;-79
2021/08/31 01:19:38;;;;;;;4.67;4.28;;;;;;;13.47;82.41;96081.59;1695173;83;20998;-79
2021/08/31 01:22:09;;;;;;;6.15;5.15;;;;;;;13.49;82.65;96078.78;1694631;83;21009;-80
2021/08/31 01:24:38;;;;;;;5.50;4.55;;;;;;;13.45;82.57;96068.46;1681785;84;21057;-80
2021/08/31 01:27:04;;;;;;;4.78;4.05;;;;;;;13.43;82.83;96077.80;1690837;83;21118;-80
2021/08/31 01:29:31;;;;;;;5.53;4.55;;;;;;;13.44;83.25;96072.88;1700093;84;21059;-79
2021/08/31 01:31:57;;;;;;;5.30;3.55;;;;;;;13.42;83.11;96072.29;1707466;84;21015;-79
2021/08/31 01:34:23;;;;;;;4.55;4.00;;;;;;;13.42;83.17;96061.05;1686630;84;21044;-80
2021/08/31 01:36:49;;;;;;;5.22;4.70;;;;;;;13.42;83.21;96063.16;1695985;84;21000;-80
2021/08/31 01:39:15;;;;;;;4.50;4.10;;;;;;;13.42;83.27;96054.53;1660930;84;21449;-80
2021/08/31 01:41:40;;;;;;;4.05;3.58;;;;;;;13.41;83.19;96057.64;1669671;84;21015;-80
2021/08/31 01:44:06;;;;;;;5.08;3.95;;;;;;;13.40;83.35;96050.82;1684810;84;21141;-79
2021/08/31 01:46:32;;;;;;;3.50;3.20;;;;;;;13.42;83.45;96046.70;1683895;84;21001;-79
2021/08/31 01:48:58;;;;;;;4.87;4.12;;;;;;;13.42;83.15;96046.70;1695651;84;21360;-80
2021/08/31 01:51:24;;;;;;;4.62;4.12;;;;;;;13.43;83.32;96046.99;1650861;84;21003;-79
2021/08/31 01:53:50;;;;;;;4.85;4.35;;;;;;;13.42;83.43;96037.06;1705811;84;20992;-79
2021/08/31 01:56:16;;;;;;;4.70;3.62;;;;;;;13.39;83.33;96036.17;1684830;84;21029;-79
2021/08/31 01:58:42;;;;;;;4.08;3.65;;;;;;;13.37;83.68;96039.50;1674273;84;21486;-80
2021/08/31 02:01:07;;;;;;;4.00;3.60;;;;;;;13.35;83.70;96034.99;1694509;83;21054;-79
2021/08/31 02:03:33;;;;;;;4.33;3.92;;;;;;;13.34;83.84;96037.78;1689479;84;21054;-80
2021/08/31 02:05:59;;;;;;;4.62;4.22;;;;;;;13.32;83.98;96037.99;1694074;84;21035;-79
2021/08/31 02:08:25;;;;;;;4.47;4.08;;;;;;;13.33;84.19;96047.92;1691283;84;21083;-80
2021/08/31 02:10:51;;;;;;;5.33;4.83;;;;;;;13.34;84.45;96053.44;1676997;84;21071;-80
2021/08/31 02:13:17;;;;;;;4.87;4.37;;;;;;;13.30;84.44;96050.45;1704396;83;21070;-80
2021/08/31 02:15:42;;;;;;;6.37;5.42;;;;;;;13.28;84.87;96051.66;1723733;83;21135;-80
2021/08/31 02:18:08;;;;;;;7.42;4.53;;;;;;;13.26;85.11;96051.08;1723301;83;21059;-80
2021/08/31 02:20:35;;;;;;;5.03;4.53;;;;;;;13.25;85.17;96047.66;1688549;84;21014;-80
2021/08/31 02:23:00;;;;;;;5.33;4.20;;;;;;;13.24;85.33;96051.28;1666554;84;20991;-80
2021/08/31 02:25:26;;;;;;;6.90;4.50;;;;;;;13.24;85.38;96050.48;1679848;84;21079;-80
2021/08/31 02:27:52;;;;;;;4.97;4.55;;;;;;;13.26;85.79;96047.16;1693760;84;21039;-80
2021/08/31 02:30:18;;;;;;;5.22;4.72;;;;;;;13.27;85.84;96048.77;1684652;84;21420;-80
2021/08/31 02:32:47;;;;;;;5.58;5.08;;;;;;;13.24;86.05;96049.98;1695852;84;20964;-80
2021/08/31 02:35:14;;;;;;;5.70;4.60;;;;;;;13.24;86.19;96047.38;1666657;84;21023;-80
2021/08/31 02:37:40;;;;;;;5.30;4.80;;;;;;;13.21;86.15;96044.67;1686862;84;21486;-80
2021/08/31 02:40:06;;;;;;;5.75;4.85;;;;;;;13.16;86.08;96045.74;1699992;84;21051;-80
2021/08/31 02:42:32;;;;;;;4.80;3.40;;;;;;;13.15;86.47;96045.95;1690686;84;21081;-80
2021/08/31 02:44:58;;;;;;;5.80;5.00;;;;;;;13.16;86.82;96053.56;1695727;84;21542;-79
2021/08/31 02:47:24;;;;;;;5.17;4.67;;;;;;;13.17;86.80;96053.06;1701444;84;21103;-80
2021/08/31 02:49:50;;;;;;;5.95;5.30;;;;;;;13.10;86.81;96049.19;1695898;84;21106;-80
2021/08/31 02:52:16;;;;;;;6.67;6.00;;;;;;;13.02;86.83;96058.55;1699454;84;21114;-80
2021/08/31 02:54:41;;;;;;;7.08;6.00;;;;;;;12.94;86.94;96048.32;1684471;84;20992;-79
2021/08/31 02:57:07;;;;;;;6.15;5.55;;;;;;;12.91;87.34;96046.93;1684409;84;21432;-79
2021/08/31 02:59:33;;;;;;;6.00;5.40;;;;;;;12.83;87.32;96052.34;1687864;84;21438;-80
2021/08/31 03:02:05;;;;;;;6.37;5.55;;;;;;;12.84;87.61;96053.15;1698019;83;21066;-80
2021/08/31 03:04:39;;;;;;;7.03;5.45;;;;;;;12.84;87.69;96053.15;1709024;83;20995;-80
2021/08/31 03:07:07;;;;;;;5.80;5.20;;;;;;;12.84;87.70;96044.02;1685838;84;21049;-80
2021/08/31 03:09:33;;;;;;;5.87;5.25;;;;;;;12.85;87.91;96041.71;1695838;83;21149;-80
2021/08/31 03:11:58;;;;;;;6.22;5.30;;;;;;;12.83;88.04;96047.63;1707672;83;21466;-79
2021/08/31 03:14:24;;;;;;;5.95;5.35;;;;;;;12.79;88.40;96036.81;1703098;83;21483;-80
2021/08/31 03:16:50;;;;;;;6.50;5.83;;;;;;;12.77;88.25;96035.42;1690245;83;21422;-80
2021/08/31 03:19:23;;;;;;;6.55;4.87;;;;;;;12.78;88.33;96030.51;1708740;83;21019;-79
2021/08/31 03:21:48;;;;;;;5.60;4.87;;;;;;;12.75;88.46;96027.01;1703256;83;21039;-79
2021/08/31 03:24:15;;;;;;;6.12;5.60;;;;;;;12.73;88.62;96031.13;1701974;83;21193;-79
2021/08/31 03:26:42;;;;;;;5.05;4.55;;;;;;;12.72;88.75;96033.94;1685337;84;20988;-79
2021/08/31 03:29:09;;;;;;;7.95;4.83;;;;;;;12.71;89.08;96030.53;1718637;83;20969;-79
2021/08/31 03:31:34;;;;;;;4.45;4.05;;;;;;;12.70;88.89;96032.84;1691396;84;21385;-79
2021/08/31 03:34:00;;;;;;;5.22;4.58;;;;;;;12.73;88.82;96032.43;1682820;84;21072;-79
2021/08/31 03:36:27;;;;;;;4.97;4.47;;;;;;;12.75;88.77;96030.92;1684355;84;21071;-79
2021/08/31 03:38:52;;;;;;;4.00;3.60;;;;;;;12.74;88.90;96032.73;1688200;84;21470;-80
2021/08/31 03:41:18;;;;;;;5.80;4.80;;;;;;;12.74;89.00;96033.23;1682096;84;21101;-79
2021/08/31 03:43:44;;;;;;;5.47;4.97;;;;;;;12.74;88.92;96030.63;1679721;84;21007;-80
2021/08/31 03:46:10;;;;;;;5.17;4.67;;;;;;;12.75;89.12;96023.09;1693571;84;21051;-79
2021/08/31 03:48:36;;;;;;;4.97;3.87;;;;;;;12.75;89.13;96022.59;1677660;84;21039;-80
2021/08/31 03:51:01;;;;;;;4.20;3.80;;;;;;;12.73;89.17;96019.39;1684370;84;21014;-79
2021/08/31 03:53:27;;;;;;;4.22;3.70;;;;;;;12.72;89.06;96030.83;1684359;84;21013;-79
2021/08/31 03:55:53;;;;;;;3.67;3.37;;;;;;;12.71;89.05;96027.12;1703698;83;21016;-79
2021/08/31 03:58:19;;;;;;;3.87;3.55;;;;;;;12.71;89.17;96028.42;1666703;85;20965;-80
2021/08/31 04:00:44;;;;;;;4.33;3.75;;;;;;;12.76;89.46;96026.00;1671500;84;21105;-79
2021/08/31 04:03:10;;;;;;;4.03;3.72;;;;;;;12.80;89.36;96023.28;1714334;82;21041;-80
2021/08/31 04:05:36;;;;;;;4.08;3.60;;;;;;;12.82;89.29;96022.06;1702390;83;21441;-79
2021/08/31 04:08:02;;;;;;;3.90;3.50;;;;;;;12.82;89.26;96019.46;1702311;83;21078;-80
2021/08/31 04:10:28;;;;;;;4.33;3.92;;;;;;;12.85;89.41;96022.98;1704559;83;21054;-80
2021/08/31 04:12:54;;;;;;;4.75;4.35;;;;;;;12.85;89.31;96014.33;1708357;83;20987;-80
2021/08/31 04:15:20;;;;;;;5.22;4.53;;;;;;;12.81;89.31;96020.97;1700907;83;21043;-80
2021/08/31 04:17:45;;;;;;;4.67;4.28;;;;;;;12.82;89.56;96025.17;1694282;83;21334;-79
2021/08/31 04:20:13;;;;;;;5.05;4.05;;;;;;;12.81;89.77;96026.19;1698164;83;21489;-79
2021/08/31 04:22:39;;;;;;;4.87;4.33;;;;;;;12.82;89.54;96021.27;1668102;84;21567;-80
2021/08/31 04:25:05;;;;;;;6.03;4.80;;;;;;;12.86;89.68;96026.39;1704494;84;21107;-80
2021/08/31 04:27:31;;;;;;;4.40;4.00;;;;;;;12.87;89.67;96018.87;1696002;84;21366;-80
2021/08/31 04:29:57;;;;;;;4.75;4.35;;;;;;;12.90;89.57;96023.16;1697877;84;21003;-80
2021/08/31 04:32:23;;;;;;;5.15;4.03;;;;;;;12.91;89.64;96017.45;1697175;84;21014;-80
2021/08/31 04:34:52;;;;;;;5.22;4.72;;;;;;;12.92;89.58;96015.13;1691271;84;20972;-80
2021/08/31 04:37:17;;;;;;;6.17;5.30;;;;;;;12.92;89.75;96005.50;1684860;84;21039;-80
2021/08/31 04:39:42;;;;;;;7.17;5.58;;;;;;;12.91;89.83;96012.23;1692445;84;20994;-80
2021/08/31 04:42:08;;;;;;;5.53;4.90;;;;;;;12.92;89.91;96020.35;1688215;84;20959;-80
2021/08/31 04:44:34;;;;;;;5.90;5.30;;;;;;;12.92;89.84;96008.61;1699413;84;21409;-80
2021/08/31 04:47:00;;;;;;;7.45;6.05;;;;;;;12.91;90.07;96016.14;1690943;84;21246;-80
2021/08/31 04:49:26;;;;;;;5.78;5.28;;;;;;;12.92;90.21;96017.23;1699999;84;21039;-79
2021/08/31 04:51:52;;;;;;;6.40;5.17;;;;;;;12.93;90.08;96018.84;1691811;84;21292;-80
2021/08/31 04:54:18;;;;;;;5.97;5.42;;;;;;;12.96;90.28;96022.84;1662872;84;21039;-80
2021/08/31 04:56:43;;;;;;;6.62;5.72;;;;;;;12.96;90.03;96009.80;1691262;84;21106;-80
2021/08/31 04:59:09;;;;;;;6.70;5.85;;;;;;;12.98;90.39;96010.89;1695787;84;21364;-80
2021/08/31 05:01:35;;;;;;;5.80;5.22;;;;;;;12.98;90.11;96010.89;1681494;84;21046;-80
2021/08/31 05:04:00;;;;;;;6.72;5.53;;;;;;;13.01;90.24;96019.10;1688473;84;21026;-80
2021/08/31 05:06:27;;;;;;;6.62;6.00;;;;;;;13.03;90.11;96014.51;1699486;83;21015;-80
2021/08/31 05:08:53;;;;;;;7.33;6.62;;;;;;;13.03;90.02;96012.41;1691575;83;21026;-80
2021/08/31 05:11:21;;;;;;;7.75;6.72;;;;;;;13.00;90.34;96008.38;1692792;85;21051;-80
2021/08/31 05:13:47;;;;;;;6.60;5.90;;;;;;;12.98;90.46;96003.88;1693760;84;21015;-80
2021/08/31 05:16:14;;;;;;;6.17;5.58;;;;;;;13.02;90.53;96008.20;1687164;84;21014;-80
2021/08/31 05:18:40;;;;;;;7.10;6.20;;;;;;;13.07;90.77;96003.95;1697244;84;21106;-79
2021/08/31 05:21:06;;;;;;;6.05;5.45;;;;;;;13.09;90.50;96005.05;1677995;84;21107;-80
2021/08/31 05:23:32;;;;;;;5.87;5.37;;;;;;;13.08;90.58;96006.86;1659404;85;21544;-80
2021/08/31 05:25:59;;;;;;;6.72;6.00;;;;;;;13.11;90.95;95999.13;1667971;84;21015;-80
2021/08/31 05:28:25;;;;;;;6.25;5.65;;;;;;;13.13;90.70;96013.55;1691854;84;21069;-80
2021/08/31 05:30:50;;;;;;;6.28;5.65;;;;;;;13.14;90.67;96002.61;1678912;84;20999;-80
2021/08/31 05:33:16;;;;;;;7.53;5.55;;;;;;;13.15;90.81;96010.73;1711170;83;21044;-80
2021/08/31 05:35:43;;;;;;;7.95;5.97;;;;;;;13.16;91.20;96010.52;1688601;84;21019;-79
2021/08/31 05:38:09;;;;;;;6.00;5.40;;;;;;;13.13;90.77;96005.73;1687031;84;21409;-80
2021/08/31 05:40:35;;;;;;;5.05;4.55;;;;;;;13.16;90.80;96010.52;1678803;84;21097;-79
2021/08/31 05:43:00;;;;;;;5.10;4.62;;;;;;;13.20;91.00;96009.66;1688886;84;21135;-80
2021/08/31 05:45:28;;;;;;;4.10;3.70;;;;;;;13.19;90.79;96007.56;1654453;84;21079;-80
2021/08/31 05:47:54;;;;;;;4.50;4.10;;;;;;;13.16;90.99;96008.42;1690230;83;21096;-80
2021/08/31 05:50:20;;;;;;;5.70;5.10;;;;;;;13.13;90.48;96008.34;1708070;83;21138;-80
2021/08/31 05:52:46;;;;;;;4.58;4.17;;;;;;;13.12;91.23;96010.65;1684216;83;21047;-80
2021/08/31 05:55:12;;;;;;;4.90;4.08;;;;;;;13.10;91.05;96013.17;1708147;83;22203;-80
2021/08/31 05:57:39;;;;;;;3.87;3.45;;;;;;;13.10;91.46;96019.19;1687232;83;21011;-80
2021/08/31 06:00:07;;;;;;;3.95;3.60;;;;;;;13.09;91.10;96022.00;1675153;84;21055;-79
2021/08/31 06:02:34;;;;;;;3.58;3.05;;;;;;;13.05;91.33;96019.02;1666048;84;21046;-80
2021/08/31 06:05:00;;;;;;;4.00;3.60;;;;;;;13.04;91.63;96022.63;1680739;84;21058;-80
2021/08/31 06:07:26;;;;;;;3.67;3.00;;;;;;;13.04;91.67;96023.13;1666132;85;21422;-79
2021/08/31 06:09:52;;;;;;;4.22;3.25;;;;;;;13.08;91.84;96017.80;1668023;85;21027;-79
2021/08/31 06:12:18;;;;;;;3.47;2.87;;;;;;;13.10;91.79;96020.49;1697159;84;21055;-80
2021/08/31 06:14:44;;;;;;;3.30;3.00;;;;;;;13.16;92.00;96019.66;1652504;85;21084;-80
2021/08/31 06:17:10;;;;;;;2.85;2.58;;;;;;;13.18;91.65;96022.92;1676357;84;21420;-80
2021/08/31 06:19:35;;;;;;;3.20;2.45;;;;;;;13.23;91.84;96013.66;1681525;84;21028;-80
2021/08/31 06:22:01;;;;;;;3.02;2.40;;;;;;;13.25;91.96;96009.03;1689728;84;21007;-80
2021/08/31 06:24:27;;;;;;;2.50;2.10;;;;;;;13.31;91.88;96005.59;1680338;84;20979;-80
2021/08/31 06:26:53;;;;;;;3.90;2.45;;;;;;;13.39;92.02;96015.80;1706517;83;20996;-80
2021/08/31 06:29:19;;;;;;;3.25;2.95;;;;;;;13.40;91.93;96016.09;1707558;83;21031;-80
2021/08/31 06:31:44;;;;;;;3.02;2.72;;;;;;;13.38;91.73;96017.61;1685124;83;21390;-80
2021/08/31 06:34:10;;;;;;;2.60;2.40;;;;;;;13.34;91.74;96019.52;1706310;83;21015;-80
2021/08/31 06:36:36;;;;;;;3.90;3.50;;;;;;;13.33;92.10;96018.72;1704499;83;21377;-80
2021/08/31 06:39:02;;;;;;;4.42;4.03;;;;;;;13.31;91.94;96019.43;1706623;83;21111;-80
2021/08/31 06:41:28;;;;;;;3.47;3.17;;;;;;;13.29;91.90;96024.56;1710937;83;21055;-80
2021/08/31 06:43:54;;;;;;;4.50;4.10;;;;;;;13.27;91.75;96023.47;1704678;83;21421;-80
2021/08/31 06:46:19;;;;;;;2.92;2.62;;;;;;;13.27;92.02;96023.97;1690636;83;21017;-80
2021/08/31 06:48:45;;;;;;;12.68;11.78;;;;;;;13.26;92.11;96022.37;1703856;83;21007;-80
2021/08/31 06:51:12;;;;;;;5.03;4.62;;;;;;;13.29;92.14;96027.97;1680838;84;21080;-80
2021/08/31 06:53:38;;;;;;;3.47;3.15;;;;;;;13.32;92.14;96033.28;1671066;84;21110;-80
2021/08/31 06:56:05;;;;;;;3.50;2.33;;;;;;;13.31;92.12;96037.70;1702630;83;20975;-80
2021/08/31 06:58:31;;;;;;;3.00;2.65;;;;;;;13.33;91.97;96034.38;1707873;83;20988;-80
2021/08/31 07:00:56;;;;;;;4.37;3.70;;;;;;;13.37;92.10;96034.28;1703051;83;21051;-80
2021/08/31 07:03:22;;;;;;;4.37;3.98;;;;;;;13.41;92.00;96033.35;1696189;83;21004;-80
2021/08/31 07:05:49;;;;;;;3.87;3.22;;;;;;;13.43;92.13;96039.16;1703097;83;21134;-80
2021/08/31 07:08:15;;;;;;;15.58;14.38;;;;;;;13.41;92.00;96044.59;1714631;83;21437;-80
2021/08/31 07:10:40;;;;;;;7.10;6.60;;;;;;;13.37;92.36;96040.80;1702074;83;21149;-80
2021/08/31 07:13:06;;;;;;;3.15;2.87;;;;;;;13.41;92.46;96045.09;1708275;83;21101;-80
2021/08/31 07:15:32;;;;;;;10.65;9.70;;;;;;;13.41;92.61;96036.77;1699995;83;21138;-80
2021/08/31 07:17:59;;;;;;;2.80;2.42;;;;;;;13.38;92.77;96041.09;1714681;83;21131;-80
2021/08/31 07:20:26;;;;;;;3.08;2.77;;;;;;;13.36;92.46;96039.70;1680030;84;21489;-80
2021/08/31 07:22:52;;;;;;;3.77;3.47;;;;;;;13.33;92.65;96043.50;1689835;84;21059;-80
2021/08/31 07:25:18;;;;;;;2.00;1.80;;;;;;;13.35;92.72;96039.41;1673076;84;21068;-80
2021/08/31 07:27:44;;;;;;;1.72;1.62;;;;;;;13.35;92.63;96038.91;1686137;84;21047;-80
2021/08/31 07:30:11;;;;;;;1.60;1.50;;;;;;;13.38;92.76;96033.77;1688907;84;21381;-80
2021/08/31 07:32:37;;;;;;;1.45;1.32;;;;;;;13.39;92.65;96037.98;1670366;84;21082;-80
2021/08/31 07:35:04;;;;;;;2.15;1.35;;;;;;;13.36;92.69;96035.29;1682183;84;20967;-80
2021/08/31 07:37:30;;;;;;;1.27;1.10;;;;;;;13.36;92.54;96037.09;1685125;84;21123;-80
2021/08/31 07:39:56;;;;;;;1.22;1.12;;;;;;;13.36;92.50;96044.42;1689631;83;21087;-79
2021/08/31 07:42:22;;;;;;;6.00;3.60;;;;;;;13.39;92.68;96044.51;1698258;84;21546;-80
2021/08/31 07:44:48;;;;;;;6.72;4.55;;;;;;;13.41;92.50;96051.12;1686160;84;21060;-79
2021/08/31 07:47:14;;;;;;;2.70;1.85;;;;;;;13.45;92.61;96054.11;1684058;84;21035;-80
2021/08/31 07:49:41;;;;;;;0.80;0.70;;;;;;;13.54;92.80;96053.38;1684699;84;21035;-80
2021/08/31 07:52:08;;;;;;;0.98;0.70;;;;;;;13.60;92.48;96044.70;1690679;84;21043;-80
2021/08/31 07:54:33;;;;;;;0.93;0.75;;;;;;;13.67;92.48;96057.23;1707396;84;21055;-80
2021/08/31 07:56:59;;;;;;;0.93;0.70;;;;;;;13.69;92.66;96056.02;1707350;84;21062;-80
2021/08/31 07:59:25;;;;;;;1.37;0.88;;;;;;;13.66;92.08;96056.41;1691821;84;21322;-79
2021/08/31 08:01:51;;;;;;;1.10;0.70;;;;;;;13.64;92.11;96060.24;1671403;84;21453;-80
2021/08/31 08:04:16;;;;;;;1.25;1.10;;;;;;;13.62;92.01;96064.37;1686799;84;21414;-80
2021/08/31 08:06:43;;;;;;;1.50;1.20;;;;;;;13.62;92.20;96064.37;1695881;84;21075;-80
2021/08/31 08:09:09;;;;;;;1.80;1.17;;;;;;;13.60;91.76;96062.98;1702134;84;21012;-80
2021/08/31 08:11:35;;;;;;;0.88;0.70;;;;;;;13.60;91.96;96062.47;1707376;84;21433;-80
2021/08/31 08:14:01;;;;;;;1.17;0.70;;;;;;;13.62;92.04;96061.76;1699859;84;21154;-80
2021/08/31 08:16:26;;;;;;;0.95;0.70;;;;;;;13.59;91.87;96058.27;1708181;83;21070;-80
2021/08/31 08:18:52;;;;;;;1.52;1.00;;;;;;;13.58;92.33;96058.47;1682922;84;21130;-80
2021/08/31 08:21:18;;;;;;;1.27;1.12;;;;;;;13.57;92.24;96059.48;1680366;84;20987;-80
2021/08/31 08:23:44;;;;;;;1.77;1.00;;;;;;;13.57;92.68;96058.18;1690765;84;22475;-80
2021/08/31 08:26:10;;;;;;;1.60;0.90;;;;;;;13.62;93.02;96059.15;1696921;84;21118;-80
2021/08/31 08:28:36;;;;;;;2.00;1.07;;;;;;;13.67;92.92;96062.46;1688873;84;21357;-80
2021/08/31 08:31:03;;;;;;;2.33;1.17;;;;;;;13.70;92.80;96071.98;1666454;85;21054;-80
2021/08/31 08:33:31;;;;;;;2.27;1.07;;;;;;;13.74;92.63;96067.13;1684305;84;21087;-80
2021/08/31 08:35:56;;;;;;;1.42;1.05;;;;;;;13.78;92.77;96067.80;1672267;84;21151;-80
2021/08/31 08:38:22;;;;;;;3.08;1.35;;;;;;;13.82;92.71;96066.88;1697588;84;21106;-80
2021/08/31 08:40:48;;;;;;;2.08;1.35;;;;;;;13.86;92.61;96072.50;1681699;84;21482;-80
2021/08/31 08:43:14;;;;;;;1.72;1.30;;;;;;;13.85;92.41;96072.21;1681866;84;21088;-80
2021/08/31 08:45:44;;;;;;;1.57;1.40;;;;;;;13.87;92.70;96074.10;1688238;84;20981;-80
2021/08/31 08:48:17;;;;;;;1.82;1.30;;;;;;;13.86;92.70;96075.12;1684726;84;21429;-80
2021/08/31 08:50:43;;;;;;;1.92;1.60;;;;;;;13.88;92.51;96077.01;1682887;84;21081;-80
2021/08/31 08:53:10;;;;;;;2.27;2.00;;;;;;;13.91;92.83;96078.69;1696223;84;20982;-80
2021/08/31 08:55:36;;;;;;;2.00;1.70;;;;;;;13.95;92.88;96072.53;1685396;84;21442;-80
2021/08/31 08:58:02;;;;;;;3.58;1.98;;;;;;;13.96;93.11;96071.02;1663664;84;20999;-80
2021/08/31 09:01:03;;;;;;;3.12;1.80;;;;;;;13.94;92.74;96072.24;1688020;84;21000;-80
2021/08/31 09:03:32;;;;;;;1.85;1.25;;;;;;;13.97;93.21;96077.84;1696850;84;20973;-80
2021/08/31 09:06:17;;;;;;;3.25;1.30;;;;;;;13.91;92.78;96077.89;1681257;84;21507;-80
2021/08/31 09:08:57;;;;;;;1.77;1.27;;;;;;;13.91;92.92;96076.58;1676978;84;20991;-80
2021/08/31 09:11:30;;;;;;;1.98;1.10;;;;;;;13.89;93.11;96079.91;1679908;84;21051;-80
2021/08/31 09:14:29;;;;;;;1.55;1.40;;;;;;;13.82;92.97;96075.51;1685239;84;21088;-80
2021/08/31 09:17:00;;;;;;;1.72;1.50;;;;;;;13.82;93.23;96073.41;1700338;84;21012;-80
2021/08/31 09:19:39;;;;;;;2.97;2.20;;;;;;;13.83;93.53;96076.34;1670617;85;21485;-80
2021/08/31 09:22:24;;;;;;;3.47;2.75;;;;;;;13.88;93.53;96079.62;1668946;84;21760;-79
2021/08/31 09:25:10;;;;;;;2.55;1.80;;;;;;;13.93;93.60;96077.17;1686612;82;20999;-79
2021/08/31 09:27:42;;;;;;;5.72;3.45;;;;;;;13.92;93.20;96085.52;1683812;84;21131;-80
2021/08/31 09:30:23;;;;;;;3.27;2.50;;;;;;;13.91;93.46;96085.72;1681771;84;21180;-80
2021/08/31 09:33:12;;;;;;;6.92;4.55;;;;;;;13.88;93.32;96083.54;1687704;84;21069;-80
2021/08/31 09:35:41;;;;;;;5.17;3.37;;;;;;;13.91;93.62;96083.11;1697700;83;21084;-79
2021/08/31 09:38:10;;;;;;;5.10;2.85;;;;;;;13.93;93.43;96081.89;1719671;83;20991;-80
2021/08/31 09:40:41;;;;;;;4.60;3.37;;;;;;;13.93;93.59;96077.97;1708242;83;21105;-80
2021/08/31 09:43:12;;;;;;;4.50;3.05;;;;;;;13.91;93.36;96075.28;1671178;85;21068;-80
2021/08/31 09:45:40;;;;;;;3.77;2.70;;;;;;;13.93;93.46;96071.95;1657157;85;21112;-80
2021/08/31 09:48:08;;;;;;;4.25;3.10;;;;;;;13.96;93.58;96059.27;1677919;84;20987;-79
2021/08/31 09:50:44;;;;;;;4.22;3.30;;;;;;;14.01;93.66;96063.88;1690234;84;21035;-80
2021/08/31 09:53:23;;;;;;;3.27;2.25;;;;;;;14.08;93.93;96060.70;1677971;84;21035;-80
2021/08/31 09:56:06;;;;;;;1.65;1.40;;;;;;;14.13;93.78;96058.25;1711923;83;21084;-80
2021/08/31 09:58:34;;;;;;;2.08;1.30;;;;;;;14.19;93.52;96062.65;1702665;84;21036;-80
2021/08/31 10:01:00;;;;;;;1.62;1.37;;;;;;;14.21;93.63;96055.91;1690850;83;21047;-80
2021/08/31 10:03:26;;;;;;;1.80;1.55;;;;;;;14.21;93.72;96055.39;1695677;84;21086;-80
2021/08/31 10:05:56;;;;;;;2.22;1.02;;;;;;;14.25;93.91;96048.73;1704859;83;20976;-80
2021/08/31 10:08:22;;;;;;;1.92;1.25;;;;;;;14.29;93.86;96056.94;1659928;84;21115;-80
2021/08/31 10:10:50;;;;;;;1.40;1.27;;;;;;;14.34;93.95;96052.69;1688161;84;21089;-80
2021/08/31 10:13:20;;;;;;;1.55;1.27;;;;;;;14.42;93.79;96047.69;1699519;84;21129;-80
2021/08/31 10:15:49;;;;;;;2.22;2.00;;;;;;;14.49;93.76;96055.02;1704336;83;21450;-80
2021/08/31 10:18:18;;;;;;;2.05;1.57;;;;;;;14.52;93.77;96054.59;1695487;84;21082;-80
2021/08/31 10:21:01;;;;;;;2.80;1.65;;;;;;;14.50;93.63;96062.35;1700272;84;21106;-80
2021/08/31 10:23:46;;;;;;;3.33;1.92;;;;;;;14.45;93.93;96062.97;1669882;84;21042;-80
2021/08/31 10:26:34;;;;;;;3.30;1.57;;;;;;;14.47;93.90;96062.75;1701285;83;21480;-80
2021/08/31 10:29:19;;;;;;;2.55;2.35;;;;;;;14.49;93.76;96054.22;1662210;84;21105;-80
2021/08/31 10:31:46;;;;;;;2.25;1.30;;;;;;;14.50;94.24;96058.44;1719696;83;21143;-80
2021/08/31 10:34:39;;;;;;;2.37;1.80;;;;;;;14.42;93.72;96060.25;1658897;85;21379;-80
2021/08/31 10:37:12;;;;;;;2.85;1.90;;;;;;;14.39;93.73;96071.14;1677610;84;21082;-80
2021/08/31 10:39:56;;;;;;;1.30;1.20;;;;;;;14.37;93.83;96075.78;1706439;83;21043;-80
2021/08/31 10:42:30;;;;;;;1.57;1.10;;;;;;;14.38;93.91;96072.66;1689639;83;21030;-79
2021/08/31 10:44:57;;;;;;;2.12;1.50;;;;;;;14.35;94.35;96081.73;1685195;84;21194;-80
2021/08/31 10:47:36;;;;;;;3.50;2.00;;;;;;;14.40;94.56;96079.78;1693648;84;21011;-80
2021/08/31 10:50:09;;;;;;;2.42;1.60;;;;;;;14.45;94.76;96067.40;1696163;82;21026;-80
2021/08/31 10:52:53;;;;;;;3.77;2.87;;;;;;;14.50;94.79;96072.30;1720562;83;21063;-80
2021/08/31 10:55:30;;;;;;;5.00;4.62;;;;;;;14.51;94.32;96067.87;1661707;85;21053;-80
2021/08/31 10:58:01;;;;;;;2.55;2.35;;;;;;;14.48;94.10;96081.34;1683970;84;21083;-80
2021/08/31 11:00:33;;;;;;;3.08;2.70;;;;;;;14.45;94.37;96081.27;1683822;84;21034;-80
2021/08/31 11:02:59;;;;;;;3.62;3.25;;;;;;;14.47;94.77;96078.44;1691949;84;21036;-80
2021/08/31 11:05:29;;;;;;;2.62;2.40;;;;;;;14.52;94.72;96076.01;1696113;84;20988;-80
2021/08/31 11:08:10;;;;;;;2.85;2.33;;;;;;;14.55;94.67;96088.65;1693831;84;21128;-80
2021/08/31 11:10:38;;;;;;;2.90;2.67;;;;;;;14.58;94.54;96086.91;1691062;84;21048;-80
2021/08/31 11:13:18;;;;;;;2.98;2.20;;;;;;;14.59;94.38;96092.43;1662962;84;21135;-80
2021/08/31 11:15:47;;;;;;;3.65;2.50;;;;;;;14.57;94.57;96087.92;1675179;84;21430;-79
2021/08/31 11:18:15;;;;;;;2.50;2.02;;;;;;;14.56;94.40;96088.94;1668631;84;21015;-80
2021/08/31 11:20:45;;;;;;;2.50;2.12;;;;;;;14.56;94.40;96092.86;1681389;84;21109;-80
2021/08/31 11:23:17;;;;;;;1.72;1.42;;;;;;;14.62;94.72;96092.80;1690181;84;21136;-80
2021/08/31 11:25:55;;;;;;;2.33;1.60;;;;;;;14.64;94.46;96090.80;1656514;84;21061;-80
2021/08/31 11:28:25;;;;;;;1.75;1.20;;;;;;;14.66;94.51;96095.81;1667271;85;21086;-80
2021/08/31 11:31:12;;;;;;;1.82;1.47;;;;;;;14.68;94.50;96097.70;1709053;83;21135;-80
2021/08/31 11:33:44;;;;;;;2.25;1.60;;;;;;;14.70;94.51;96096.47;1692680;84;21127;-80
2021/08/31 11:36:16;;;;;;;1.75;1.65;;;;;;;14.69;94.45;96092.76;1674881;84;21019;-80
2021/08/31 11:38:45;;;;;;;;;;;;;;;14.73;94.67;96093.13;1686678;84;21005;-80